createdAt,value
2022-09-28T00:00:45.207Z,6.95
2022-09-28T00:03:14.944Z,8.38
2022-09-28T00:05:45.493Z,13.00
2022-09-28T00:08:12.460Z,7.57
2022-09-28T00:10:39.265Z,7.90
2022-09-28T00:13:06.298Z,9.70
2022-09-28T00:15:33.200Z,7.97
2022-09-28T00:18:01.524Z,8.43
2022-09-28T00:20:28.388Z,8.75
2022-09-28T00:22:55.451Z,9.27
2022-09-28T00:25:23.421Z,8.23
2022-09-28T00:27:50.945Z,11.50
2022-09-28T00:30:17.860Z,9.75
2022-09-28T00:32:44.692Z,7.47
2022-09-28T00:35:16.829Z,9.85
2022-09-28T00:37:46.540Z,10.43
2022-09-28T00:40:13.377Z,8.40
2022-09-28T00:42:40.248Z,8.07
2022-09-28T00:45:12.878Z,8.52
2022-09-28T00:47:55.680Z,7.53
2022-09-28T00:50:29.150Z,7.80
2022-09-28T00:53:03.211Z,8.13
2022-09-28T00:55:35.681Z,8.27
2022-09-28T00:58:05.492Z,9.45
2022-09-28T01:00:32.609Z,8.80
2022-09-28T01:02:59.619Z,7.70
2022-09-28T01:05:30.864Z,8.20
2022-09-28T01:07:59.306Z,8.95
2022-09-28T01:10:33.460Z,7.88
2022-09-28T01:13:06.376Z,7.72
2022-09-28T01:15:45.842Z,8.88
2022-09-28T01:18:19.808Z,8.45
2022-09-28T01:20:56.162Z,9.00
2022-09-28T01:23:48.611Z,8.65
2022-09-28T01:26:47.379Z,8.38
2022-09-28T01:29:22.503Z,7.35
2022-09-28T01:32:02.020Z,8.52
2022-09-28T01:34:37.450Z,8.52
2022-09-28T01:37:12.224Z,8.77
2022-09-28T01:39:47.870Z,8.55
2022-09-28T01:42:21.866Z,8.55
2022-09-28T01:44:51.835Z,8.73
2022-09-28T01:47:24.026Z,8.27
2022-09-28T01:50:01.942Z,10.32
2022-09-28T01:52:35.195Z,9.25
2022-09-28T01:55:10.475Z,13.73
2022-09-28T01:57:43.315Z,10.48
2022-09-28T02:00:24.340Z,16.08
2022-09-28T02:02:59.453Z,17.83
2022-09-28T02:05:32.996Z,20.52
2022-09-28T02:08:08.765Z,25.45
2022-09-28T02:10:42.219Z,13.73
2022-09-28T02:13:14.297Z,27.20
2022-09-28T02:15:51.001Z,16.98
2022-09-28T02:18:17.905Z,9.18
2022-09-28T02:20:50.525Z,16.27
2022-09-28T02:23:18.914Z,16.75
2022-09-28T02:25:54.838Z,8.30
2022-09-28T02:28:24.745Z,9.60
2022-09-28T02:30:51.767Z,9.63
2022-09-28T02:33:25.832Z,9.80
2022-09-28T02:36:02.041Z,9.75
2022-09-28T02:38:28.797Z,10.25
2022-09-28T02:41:04.124Z,10.50
2022-09-28T02:43:44.945Z,10.07
2022-09-28T02:46:24.789Z,11.32
2022-09-28T02:49:20.739Z,10.18
2022-09-28T02:52:08.691Z,10.57
2022-09-28T02:55:03.635Z,11.35
2022-09-28T02:58:10.954Z,11.70
2022-09-28T03:00:50.413Z,11.40
2022-09-28T03:03:29.338Z,11.68
2022-09-28T03:06:02.289Z,10.88
2022-09-28T03:08:35.886Z,11.38
2022-09-28T03:11:08.446Z,11.85
2022-09-28T03:13:36.563Z,10.75
2022-09-28T03:16:11.101Z,11.65
2022-09-28T03:18:38.420Z,11.02
2022-09-28T03:21:10.892Z,12.25
2022-09-28T03:23:44.009Z,11.27
2022-09-28T03:26:11.862Z,11.63
2022-09-28T03:28:41.121Z,11.23
2022-09-28T03:31:09.565Z,11.55
2022-09-28T03:33:39.594Z,11.02
2022-09-28T03:36:08.580Z,11.45
2022-09-28T03:38:37.827Z,10.05
2022-09-28T03:41:04.838Z,11.23
2022-09-28T03:43:34.350Z,12.40
2022-09-28T03:46:02.615Z,12.30
2022-09-28T03:48:33.161Z,11.88
2022-09-28T03:51:03.978Z,12.33
2022-09-28T03:53:31.181Z,13.20
2022-09-28T03:56:11.925Z,13.30
2022-09-28T03:58:44.988Z,13.23
2022-09-28T04:01:17.229Z,12.85
2022-09-28T04:03:46.802Z,13.07
2022-09-28T04:06:26.000Z,12.60
2022-09-28T04:08:57.417Z,12.85
2022-09-28T04:13:56.315Z,12.82
2022-09-28T04:16:25.105Z,12.50
2022-09-28T04:18:53.837Z,13.35
2022-09-28T04:21:29.470Z,14.40
2022-09-28T04:24:03.575Z,13.00
2022-09-28T04:26:36.229Z,12.80
2022-09-28T04:29:10.765Z,12.40
2022-09-28T04:31:51.512Z,13.05
2022-09-28T04:34:31.850Z,11.93
2022-09-28T04:37:10.674Z,12.80
2022-09-28T04:39:51.060Z,13.70
2022-09-28T04:42:27.752Z,14.80
2022-09-28T04:44:57.731Z,12.55
2022-09-28T04:47:33.633Z,13.13
2022-09-28T04:50:17.471Z,11.63
2022-09-28T04:52:53.945Z,13.32
2022-09-28T04:55:28.292Z,12.70
2022-09-28T04:57:56.948Z,12.82
2022-09-28T05:00:57.740Z,14.80
2022-09-28T05:07:01.070Z,13.32
2022-09-28T05:13:30.806Z,15.27
2022-09-28T05:16:42.643Z,14.27
2022-09-28T05:22:36.864Z,13.77
2022-09-28T05:26:33.502Z,12.65
2022-09-28T05:28:42.578Z,12.63
2022-09-28T05:31:24.728Z,12.45
2022-09-28T05:34:15.968Z,11.73
2022-09-28T05:37:15.186Z,13.68
2022-09-28T05:39:55.123Z,12.68
2022-09-28T05:43:02.888Z,12.07
2022-09-28T05:45:39.700Z,12.60
2022-09-28T05:48:17.371Z,12.68
2022-09-28T05:53:45.878Z,13.13
2022-09-28T05:56:24.752Z,14.07
2022-09-28T05:59:02.304Z,12.68
2022-09-28T06:01:32.527Z,13.20
2022-09-28T06:04:04.628Z,11.40
2022-09-28T06:06:31.728Z,14.80
2022-09-28T06:09:05.480Z,12.90
2022-09-28T06:11:33.145Z,12.10
2022-09-28T06:14:11.293Z,13.15
2022-09-28T06:16:50.408Z,11.75
2022-09-28T06:19:18.870Z,12.68
2022-09-28T06:21:52.561Z,13.15
2022-09-28T06:24:42.876Z,16.80
2022-09-28T06:27:12.748Z,14.35
2022-09-28T06:29:43.041Z,11.95
2022-09-28T06:32:21.892Z,13.80
2022-09-28T06:34:56.717Z,12.43
2022-09-28T06:37:29.987Z,12.30
2022-09-28T06:39:56.758Z,12.75
2022-09-28T06:42:33.668Z,13.25
2022-09-28T06:45:10.228Z,14.25
2022-09-28T06:47:39.630Z,12.25
2022-09-28T06:50:29.270Z,15.80
2022-09-28T06:53:05.269Z,12.30
2022-09-28T06:55:43.301Z,16.42
2022-09-28T06:58:17.852Z,13.32
2022-09-28T07:01:02.045Z,15.73
2022-09-28T07:09:24.339Z,15.05
2022-09-28T07:11:55.725Z,13.88
2022-09-28T07:14:47.369Z,14.95
2022-09-28T07:17:23.493Z,21.00
2022-09-28T07:19:54.966Z,19.45
2022-09-28T07:25:20.116Z,16.00
2022-09-28T07:27:48.950Z,15.20
2022-09-28T07:33:19.495Z,15.07
2022-09-28T07:35:56.333Z,15.60
2022-09-28T07:38:43.835Z,18.33
2022-09-28T07:41:20.300Z,14.85
2022-09-28T07:44:04.169Z,17.10
2022-09-28T07:46:50.110Z,13.68
2022-09-28T07:49:19.004Z,15.55
2022-09-28T07:51:54.259Z,14.40
2022-09-28T07:54:23.528Z,16.55
2022-09-28T07:57:06.028Z,16.17
2022-09-28T08:02:36.215Z,14.55
2022-09-28T08:05:19.533Z,17.00
2022-09-28T08:07:55.253Z,12.20
2022-09-28T08:10:42.407Z,9.25
2022-09-28T08:13:23.515Z,8.57
2022-09-28T08:16:03.676Z,8.55
2022-09-28T08:18:33.044Z,7.13
2022-09-28T08:21:15.188Z,6.57
2022-09-28T08:23:47.796Z,11.80
2022-09-28T08:26:20.123Z,7.05
2022-09-28T08:28:51.591Z,10.13
2022-09-28T08:33:49.736Z,5.28
2022-09-28T08:36:27.793Z,5.40
2022-09-28T08:42:09.001Z,7.47
2022-09-28T08:45:02.086Z,4.90
2022-09-28T08:47:48.560Z,11.43
2022-09-28T08:50:35.848Z,8.35
2022-09-28T08:53:18.361Z,5.47
2022-09-28T08:55:51.382Z,6.47
2022-09-28T08:58:38.554Z,3.50
2022-09-28T09:01:19.398Z,4.72
2022-09-28T09:04:04.124Z,3.88
2022-09-28T09:06:46.629Z,3.72
2022-09-28T09:09:33.704Z,4.03
2022-09-28T09:12:17.389Z,4.05
2022-09-28T09:15:22.119Z,2.90
2022-09-28T09:18:19.758Z,3.72
2022-09-28T09:21:17.048Z,4.93
2022-09-28T09:24:00.584Z,1.05
2022-09-28T09:26:39.310Z,0.95
2022-09-28T09:29:30.451Z,0.73
2022-09-28T09:32:19.870Z,2.15
2022-09-28T09:35:29.260Z,4.72
2022-09-28T09:38:13.154Z,0.57
2022-09-28T09:40:55.894Z,2.53
2022-09-28T09:43:50.600Z,5.60
2022-09-28T09:46:27.060Z,2.88
2022-09-28T09:49:08.163Z,3.70
2022-09-28T09:51:45.966Z,3.20
2022-09-28T09:54:29.744Z,0.93
2022-09-28T09:57:06.406Z,1.25
2022-09-28T09:59:39.928Z,0.52
2022-09-28T10:02:22.515Z,1.73
2022-09-28T10:04:52.399Z,2.33
2022-09-28T10:07:30.760Z,0.20
2022-09-28T10:10:11.579Z,0.85
2022-09-28T10:12:44.020Z,1.13
2022-09-28T10:15:19.746Z,0.75
2022-09-28T10:17:48.429Z,0.55
2022-09-28T10:20:29.003Z,1.30
2022-09-28T10:23:03.315Z,1.17
2022-09-28T10:25:34.188Z,1.30
2022-09-28T10:31:36.603Z,0.63
2022-09-28T10:34:11.749Z,1.75
2022-09-28T10:36:52.327Z,0.30
2022-09-28T10:39:34.394Z,1.40
2022-09-28T10:42:28.922Z,0.68
2022-09-28T10:45:19.402Z,0.52
2022-09-28T10:47:53.990Z,1.50
2022-09-28T10:50:23.614Z,2.30
2022-09-28T10:52:50.307Z,1.75
2022-09-28T10:55:36.855Z,1.67
2022-09-28T10:58:27.538Z,0.95
2022-09-28T11:01:25.701Z,0.80
2022-09-28T11:04:06.615Z,0.32
2022-09-28T11:06:42.357Z,0.93
2022-09-28T11:09:29.765Z,0.45
2022-09-28T11:12:03.583Z,0.30
2022-09-28T11:14:42.948Z,0.73
2022-09-28T11:17:17.646Z,0.85
2022-09-28T11:19:54.689Z,0.32
2022-09-28T11:22:28.416Z,2.28
2022-09-28T11:25:16.438Z,0.85
2022-09-28T11:27:58.969Z,0.25
2022-09-28T11:30:32.717Z,1.05
2022-09-28T11:33:19.092Z,1.38
2022-09-28T11:36:02.373Z,0.20
2022-09-28T11:38:39.618Z,0.43
2022-09-28T11:41:25.639Z,0.75
2022-09-28T11:44:22.873Z,1.35
2022-09-28T11:47:02.268Z,0.32
2022-09-28T11:49:39.085Z,1.38
2022-09-28T11:52:16.707Z,2.15
2022-09-28T11:54:49.012Z,0.63
2022-09-28T11:57:22.463Z,1.00
2022-09-28T12:03:20.792Z,0.82
2022-09-28T12:06:00.177Z,1.10
2022-09-28T12:08:34.766Z,2.00
2022-09-28T12:11:05.643Z,0.82
2022-09-28T12:13:37.593Z,0.40
2022-09-28T12:19:02.910Z,0.75
2022-09-28T12:21:39.177Z,0.40
2022-09-28T12:24:20.301Z,0.25
2022-09-28T12:26:56.617Z,0.40
2022-09-28T12:29:37.884Z,0.70
2022-09-28T12:32:21.752Z,0.13
2022-09-28T12:34:58.920Z,0.40
2022-09-28T12:38:09.981Z,0.55
2022-09-28T12:40:42.286Z,0.47
2022-09-28T12:43:27.982Z,0.73
2022-09-28T12:46:17.325Z,2.35
2022-09-28T12:52:10.047Z,0.65
2022-09-28T12:58:03.502Z,2.33
2022-09-28T13:00:41.350Z,2.42
2022-09-28T13:03:38.334Z,0.88
2022-09-28T13:06:37.665Z,0.80
2022-09-28T13:09:34.562Z,3.22
2022-09-28T13:12:35.512Z,0.15
2022-09-28T13:15:29.711Z,1.70
2022-09-28T13:18:13.361Z,0.52
2022-09-28T13:20:59.479Z,0.50
2022-09-28T13:23:40.223Z,1.98
2022-09-28T13:26:24.560Z,2.22
2022-09-28T13:28:58.455Z,0.57
2022-09-28T13:31:31.800Z,0.20
2022-09-28T13:34:03.030Z,3.30
2022-09-28T13:36:42.495Z,0.85
2022-09-28T13:42:02.655Z,0.40
2022-09-28T13:47:34.464Z,1.10
2022-09-28T13:50:23.692Z,0.85
2022-09-28T13:53:07.762Z,0.80
2022-09-28T13:55:51.342Z,0.22
2022-09-28T13:58:34.933Z,1.52
2022-09-28T14:01:09.541Z,2.08
2022-09-28T14:03:58.865Z,2.65
2022-09-28T14:06:30.708Z,1.23
2022-09-28T14:09:38.685Z,2.22
2022-09-28T14:12:45.467Z,0.57
2022-09-28T14:15:59.572Z,4.78
2022-09-28T14:22:06.595Z,1.80
2022-09-28T14:25:22.743Z,0.77
2022-09-28T14:28:37.906Z,2.92
2022-09-28T14:31:29.118Z,1.83
2022-09-28T14:34:31.643Z,0.32
2022-09-28T14:37:20.201Z,1.83
2022-09-28T14:40:04.181Z,6.85
2022-09-28T14:42:41.663Z,1.42
2022-09-28T14:45:43.601Z,0.75
2022-09-28T14:52:02.251Z,0.85
2022-09-28T14:54:39.936Z,2.85
2022-09-28T14:57:20.972Z,0.93
2022-09-28T15:00:17.669Z,0.52
2022-09-28T15:02:56.244Z,1.38
2022-09-28T15:06:11.666Z,0.98
2022-09-28T15:09:01.474Z,0.90
2022-09-28T15:14:44.971Z,0.77
2022-09-28T15:17:24.321Z,0.25
2022-09-28T15:20:31.354Z,0.47
2022-09-28T15:23:02.008Z,0.65
2022-09-28T15:26:03.578Z,1.05
2022-09-28T15:28:57.748Z,0.55
2022-09-28T15:31:41.233Z,0.25
2022-09-28T15:37:39.631Z,0.93
2022-09-28T15:40:32.509Z,0.77
2022-09-28T15:43:38.767Z,0.25
2022-09-28T15:46:27.322Z,0.50
2022-09-28T15:49:10.375Z,0.82
2022-09-28T15:52:05.175Z,0.38
2022-09-28T15:54:45.243Z,0.15
2022-09-28T15:57:40.180Z,0.77
2022-09-28T16:03:42.238Z,0.57
2022-09-28T16:10:02.828Z,0.60
2022-09-28T16:12:50.540Z,1.23
2022-09-28T16:15:29.045Z,0.70
2022-09-28T16:18:04.466Z,1.08
2022-09-28T16:21:24.743Z,3.75
2022-09-28T16:24:06.009Z,0.55
2022-09-28T16:26:43.763Z,1.20
2022-09-28T16:33:02.251Z,2.67
2022-09-28T16:35:34.669Z,0.80
2022-09-28T16:38:31.172Z,1.00
2022-09-28T16:41:08.767Z,1.00
2022-09-28T16:43:47.543Z,1.92
2022-09-28T16:46:28.325Z,3.55
2022-09-28T16:49:24.678Z,1.70
2022-09-28T16:51:58.124Z,2.85
2022-09-28T16:54:50.620Z,1.25
2022-09-28T16:57:25.047Z,0.68
2022-09-28T17:00:00.651Z,1.58
2022-09-28T17:02:46.148Z,3.40
2022-09-28T17:05:39.912Z,2.30
2022-09-28T17:08:20.325Z,2.97
2022-09-28T17:11:27.080Z,1.30
2022-09-28T17:14:13.770Z,1.13
2022-09-28T17:19:49.903Z,1.13
2022-09-28T17:22:34.090Z,0.90
2022-09-28T17:25:51.558Z,1.02
2022-09-28T17:28:27.168Z,3.47
2022-09-28T17:31:18.402Z,3.13
2022-09-28T17:34:31.362Z,2.97
2022-09-28T17:37:14.030Z,2.38
2022-09-28T17:40:37.203Z,1.08
2022-09-28T17:44:03.312Z,1.27
2022-09-28T17:49:39.268Z,1.02
2022-09-28T17:52:38.988Z,1.50
2022-09-28T17:55:17.726Z,0.70
2022-09-28T17:57:44.596Z,1.10
2022-09-28T18:06:49.154Z,0.70
2022-09-28T18:10:11.478Z,0.75
2022-09-28T18:13:10.235Z,0.93
2022-09-28T18:15:54.444Z,2.25
2022-09-28T18:18:43.332Z,1.67
2022-09-28T18:24:38.958Z,3.05
2022-09-28T18:27:37.945Z,2.70
2022-09-28T18:30:46.033Z,2.88
2022-09-28T18:33:22.002Z,3.05
2022-09-28T18:36:09.697Z,5.20
2022-09-28T18:39:06.419Z,4.82
2022-09-28T18:48:12.223Z,10.60
2022-09-28T18:54:11.255Z,3.63
2022-09-28T18:56:40.505Z,3.33
2022-09-28T19:02:25.546Z,66.00
2022-09-28T19:08:18.055Z,45.33
2022-09-28T19:14:11.473Z,4.90
2022-09-28T19:37:43.502Z,6.68
2022-09-28T19:44:10.395Z,2.85
2022-09-28T20:00:49.490Z,5.25
2022-09-28T20:03:18.956Z,4.13
2022-09-28T20:05:56.553Z,6.38
2022-09-28T20:08:23.816Z,5.25
2022-09-28T20:10:56.380Z,5.93
2022-09-28T20:13:32.622Z,6.20
2022-09-28T20:16:08.268Z,5.50
2022-09-28T20:18:37.947Z,4.95
2022-09-28T20:21:07.023Z,5.60
2022-09-28T20:23:34.045Z,5.25
2022-09-28T20:26:03.047Z,8.25
2022-09-28T20:28:35.494Z,6.30
2022-09-28T20:31:06.721Z,6.13
2022-09-28T20:33:35.231Z,5.30
2022-09-28T20:36:06.169Z,6.95
2022-09-28T20:38:33.119Z,6.35
2022-09-28T20:41:00.326Z,5.97
2022-09-28T20:43:37.412Z,5.82
2022-09-28T20:46:09.529Z,6.20
2022-09-28T20:48:38.211Z,14.82
2022-09-28T20:51:09.769Z,26.55
2022-09-28T20:53:37.335Z,15.20
2022-09-28T20:56:08.244Z,5.85
2022-09-28T20:58:40.902Z,4.45
2022-09-28T21:01:14.678Z,4.80
2022-09-28T21:03:45.571Z,9.00
2022-09-28T21:06:20.723Z,7.68
2022-09-28T21:08:54.563Z,5.75
2022-09-28T21:11:26.294Z,5.72
2022-09-28T21:13:59.467Z,6.00
2022-09-28T21:16:42.501Z,4.60
2022-09-28T21:19:13.330Z,4.60
2022-09-28T21:21:48.153Z,3.50
2022-09-28T21:24:20.697Z,3.85
2022-09-28T21:26:47.732Z,5.68
2022-09-28T21:29:19.967Z,4.82
2022-09-28T21:31:51.643Z,5.57
2022-09-28T21:34:20.734Z,11.27
2022-09-28T21:36:51.269Z,6.95
2022-09-28T21:39:19.208Z,5.13
2022-09-28T21:41:49.335Z,4.32
2022-09-28T21:44:17.923Z,4.25
2022-09-28T21:46:44.916Z,4.32
2022-09-28T21:49:14.625Z,5.57
2022-09-28T21:51:41.428Z,5.03
2022-09-28T21:54:16.043Z,5.07
2022-09-28T21:59:59.467Z,4.40
2022-09-28T22:02:43.576Z,66.55
2022-09-28T22:07:54.082Z,6.85
2022-09-28T22:10:20.806Z,7.95
2022-09-28T22:12:49.108Z,5.68
2022-09-28T22:15:15.991Z,6.35
2022-09-28T22:17:43.117Z,4.35
2022-09-28T22:20:10.064Z,4.18
2022-09-28T22:22:38.129Z,5.50
2022-09-28T22:25:05.728Z,10.13
2022-09-28T22:27:32.380Z,34.92
2022-09-28T22:29:59.235Z,33.67
2022-09-28T22:32:26.229Z,81.85
2022-09-28T22:34:53.061Z,87.05
2022-09-28T22:37:22.780Z,43.45
2022-09-28T22:39:51.138Z,15.85
2022-09-28T22:42:17.787Z,20.00
2022-09-28T22:44:44.698Z,9.32
2022-09-28T22:47:11.421Z,5.35
2022-09-28T22:49:38.095Z,4.88
2022-09-28T22:52:05.150Z,4.20
2022-09-28T22:54:32.650Z,4.53
2022-09-28T22:57:00.831Z,4.95
2022-09-28T22:59:27.492Z,3.97
2022-09-28T23:01:54.396Z,3.75
2022-09-28T23:04:21.050Z,5.32
2022-09-28T23:06:47.690Z,3.58
2022-09-28T23:09:14.949Z,3.78
2022-09-28T23:11:42.630Z,3.40
2022-09-28T23:14:12.108Z,3.97
2022-09-28T23:16:40.787Z,3.60
2022-09-28T23:19:07.454Z,3.58
2022-09-28T23:21:34.156Z,3.80
2022-09-28T23:24:01.739Z,4.18
2022-09-28T23:26:30.588Z,4.03
2022-09-28T23:28:58.299Z,4.13
2022-09-28T23:31:28.854Z,4.45
2022-09-28T23:33:59.649Z,3.70
2022-09-28T23:36:26.824Z,4.30
2022-09-28T23:38:54.063Z,4.30
2022-09-28T23:41:21.638Z,4.65
2022-09-28T23:43:48.400Z,4.78
2022-09-28T23:46:20.955Z,4.03
2022-09-28T23:48:50.796Z,4.30
2022-09-28T23:51:17.769Z,3.88
2022-09-28T23:53:44.920Z,3.90
2022-09-28T23:56:11.558Z,4.20
2022-09-28T23:58:39.454Z,4.55
